Météo Nord-Pas-de-Calais   La météo au plus près de chez vous

Station météorologique

Observations météo à St-Auban-Sur-Ouveze (26292)

26292002 625 m Dernier relevé à 21:24
18.9°C
Humidité 45 % Vent 6.1 km/h

Journée consultée

Lundi 31 Août 2026

Synthèse de la journée

Périodes de référence en UTC

Température maximale

28.7°C

à 15:00

06h 06h

Température minimale

13.9°C

à 04:54

18h 18h

Rafale maximale

33 km/h

à 16:06

00h 00h

Précipitations

0 mm

Cumul quotidien

06h 06h

Ensoleillement

10h 27 mins

Durée quotidienne

00h 00h

Graphiques de la journée

Heure locale Réduire

Données détaillées

Relevés météo

Pas de 6 minutes Afficher les relevés infra-horaires
Relevés météo détaillés à St-Auban-Sur-Ouveze pour le Lundi 31 Août 2026
Heure Température °C Point de rosée °C Humidité % Vent moyen (raf.), km/h Précipitations mm Ensoleillement min Rayonnement global W/m²
21:24 18.9 °C 11 °C 60 % 6 km/h (10 km/h) 0 mm0 mm 0 min 0 W/m²
21:18 19.4 °C 10.7 °C 57 % 7 km/h (9 km/h) 0 mm0 mm 0 min 0 W/m²
21:12 19.6 °C 10.6 °C 56 % 7 km/h (10 km/h) 0 mm0 mm 0 min 0 W/m²
21:06 19.9 °C 10.6 °C 55 % 6 km/h (10 km/h) 0 mm0 mm 0 min 0 W/m²
21:00 20.4 °C 10.8 °C 54 % 5 km/h (9 km/h) 0 mm0 mm 0 min 0 W/m²
20:54 20.8 °C 10 °C 50 % 3 km/h (8 km/h) 0 mm0 mm 0 min 0 W/m²
20:48 21 °C 10.5 °C 51 % 4 km/h (9 km/h) 0 mm0 mm 0 min 0 W/m²
20:42 21.8 °C 9.7 °C 46 % 5 km/h (17 km/h) 0 mm0 mm 0 min 0 W/m²
20:36 22 °C 10.2 °C 47 % 6 km/h (17 km/h) 0 mm0 mm 0 min 0 W/m²
20:30 22.6 °C 10.1 °C 45 % 6 km/h (12 km/h) 0 mm0 mm 0 min 0 W/m²
20:24 22.6 °C 10.1 °C 45 % 6 km/h (11 km/h) 0 mm0 mm 0 min 0 W/m²
20:18 23.1 °C 9.8 °C 43 % 6 km/h (11 km/h) 0 mm0 mm 0 min 0 W/m²
20:12 23.4 °C 9.8 °C 42 % 6 km/h (14 km/h) 0 mm0 mm 0 min 0 W/m²
20:06 23.8 °C 10.1 °C 42 % 10 km/h (21 km/h) 0 mm0 mm 0 min 0 W/m²
20:00 24.2 °C 10.1 °C 41 % 11 km/h (21 km/h) 0 mm0 mm 0 min 5.6 W/m²
19:54 24.9 °C 10.4 °C 40 % 12 km/h (20 km/h) 0 mm0 mm 6 min 11.7 W/m²
19:48 25.2 °C 9.9 °C 38 % 12 km/h (24 km/h) 0 mm0 mm 6 min 17.1 W/m²
19:42 25.4 °C 9.6 °C 37 % 13 km/h (24 km/h) 0 mm0 mm 6 min 22.6 W/m²
19:36 25.8 °C 10 °C 37 % 13 km/h (19 km/h) 0 mm0 mm 6 min 28.2 W/m²
19:30 26 °C 9.8 °C 36 % 12 km/h (19 km/h) 0 mm0 mm 6 min 33.7 W/m²
19:24 26.2 °C 9.9 °C 36 % 14 km/h (24 km/h) 0 mm0 mm 1 min 14.6 W/m²
19:18 26.2 °C 9.9 °C 36 % 15 km/h (26 km/h) 0 mm0 mm 0 min 10.8 W/m²
19:12 26.5 °C 10.2 °C 36 % 15 km/h (26 km/h) 0 mm0 mm 0 min 11.5 W/m²
19:06 26.6 °C 10.3 °C 36 % 15 km/h (23 km/h) 0 mm0 mm 0 min 12.1 W/m²
19:00 26.9 °C 10.1 °C 35 % 14 km/h (22 km/h) 0 mm0 mm 0 min 12.8 W/m²
18:54 27.1 °C 9.9 °C 34 % 11 km/h (20 km/h) 0 mm0 mm 1 min 27.9 W/m²
18:48 27.3 °C 10.9 °C 36 % 11 km/h (22 km/h) 0 mm0 mm 6 min 76.1 W/m²
18:42 27.2 °C 10.4 °C 35 % 14 km/h (25 km/h) 0 mm0 mm 6 min 73.5 W/m²
18:36 27.2 °C 10.4 °C 35 % 13 km/h (25 km/h) 0 mm0 mm 6 min 85 W/m²
18:30 27.3 °C 10.5 °C 35 % 14 km/h (26 km/h) 0 mm0 mm 6 min 95.3 W/m²
18:24 27.3 °C 10.5 °C 35 % 17 km/h (26 km/h) 0 mm0 mm 6 min 103.4 W/m²
18:18 27.4 °C 10.6 °C 35 % 15 km/h (24 km/h) 0 mm0 mm 6 min 106.7 W/m²
18:12 27.5 °C 10.2 °C 34 % 16 km/h (27 km/h) 0 mm0 mm 6 min 115.8 W/m²
18:06 27.7 °C 10.4 °C 34 % 15 km/h (26 km/h) 0 mm0 mm 6 min 124.4 W/m²
18:00 27.8 °C 10.5 °C 34 % 15 km/h (27 km/h) 0 mm0 mm 6 min 131.1 W/m²
17:54 27.5 °C 10.2 °C 34 % 17 km/h (30 km/h) 0 mm0 mm 6 min 137.8 W/m²
17:48 27.8 °C 10.9 °C 35 % 15 km/h (26 km/h) 0 mm0 mm 6 min 142.9 W/m²
17:42 27.9 °C 10.6 °C 34 % 14 km/h (26 km/h) 0 mm0 mm 6 min 148.2 W/m²
17:36 27.7 °C 10.8 °C 35 % 15 km/h (24 km/h) 0 mm0 mm 6 min 155 W/m²
17:30 27.7 °C 10.4 °C 34 % 16 km/h (24 km/h) 0 mm0 mm 6 min 162.2 W/m²
17:24 28.1 °C 10.8 °C 34 % 16 km/h (27 km/h) 0 mm0 mm 6 min 169.8 W/m²
17:18 28.1 °C 10.8 °C 34 % 18 km/h (29 km/h) 0 mm0 mm 6 min 174.7 W/m²
17:12 27.9 °C 10.6 °C 34 % 18 km/h (29 km/h) 0 mm0 mm 6 min 180 W/m²
17:06 28.2 °C 10.8 °C 34 % 15 km/h (28 km/h) 0 mm0 mm 6 min 184.6 W/m²
17:00 28.3 °C 10.9 °C 34 % 16 km/h (29 km/h) 0 mm0 mm 6 min 190.8 W/m²
16:54 28.1 °C 10.3 °C 33 % 15 km/h (29 km/h) 0 mm0 mm 6 min 195.9 W/m²
16:48 27.9 °C 10.1 °C 33 % 15 km/h (26 km/h) 0 mm0 mm 6 min 202.2 W/m²
16:42 27.9 °C 11 °C 35 % 15 km/h (25 km/h) 0 mm0 mm 6 min 207.3 W/m²
16:36 27.7 °C 10.4 °C 34 % 15 km/h (29 km/h) 0 mm0 mm 6 min 211.3 W/m²
16:30 27.6 °C 10.8 °C 35 % 18 km/h (29 km/h) 0 mm0 mm 6 min 217.4 W/m²
16:24 28 °C 10.7 °C 34 % 19 km/h (29 km/h) 0 mm0 mm 6 min 221.2 W/m²
16:18 28.3 °C 11.4 °C 35 % 17 km/h (29 km/h) 0 mm0 mm 6 min 227.1 W/m²
16:12 28.1 °C 11.2 °C 35 % 17 km/h (28 km/h) 0 mm0 mm 6 min 230.9 W/m²
16:06 28.3 °C 11.4 °C 35 % 16 km/h (33 km/h) 0 mm0 mm 6 min 236.3 W/m²
16:00 28.2 °C 11.7 °C 36 % 17 km/h (30 km/h) 0 mm0 mm 6 min 240.8 W/m²
15:54 28.3 °C 12.2 °C 37 % 18 km/h (30 km/h) 0 mm0 mm 6 min 244.1 W/m²
15:48 28.3 °C 12.6 °C 38 % 17 km/h (30 km/h) 0 mm0 mm 6 min 249.7 W/m²
15:42 28.5 °C 13.2 °C 39 % 16 km/h (26 km/h) 0 mm0 mm 6 min 255 W/m²
15:36 28.6 °C 13.7 °C 40 % 15 km/h (27 km/h) 0 mm0 mm 6 min 228.9 W/m²
15:30 27.9 °C 12.3 °C 38 % 13 km/h (22 km/h) 0 mm0 mm 6 min 264 W/m²
15:24 28.3 °C 12.6 °C 38 % 13 km/h (24 km/h) 0 mm0 mm 6 min 267.6 W/m²
15:18 28.1 °C 13.2 °C 40 % 15 km/h (26 km/h) 0 mm0 mm 6 min 268.5 W/m²
15:12 28.2 °C 13.7 °C 41 % 16 km/h (25 km/h) 0 mm0 mm 6 min 270.5 W/m²
15:06 28.4 °C 13.1 °C 39 % 14 km/h (23 km/h) 0 mm0 mm 6 min 274.4 W/m²
15:00 28 °C 12.8 °C 39 % 15 km/h (31 km/h) 0 mm0 mm 6 min 276.3 W/m²
14:54 28.3 °C 13.4 °C 40 % 15 km/h (24 km/h) 0 mm0 mm 6 min 277.2 W/m²
14:48 28.6 °C 14.1 °C 41 % 13 km/h (24 km/h) 0 mm0 mm 6 min 278.5 W/m²
14:42 28.3 °C 14.2 °C 42 % 10 km/h (19 km/h) 0 mm0 mm 6 min 280.7 W/m²
14:36 28.2 °C 14.1 °C 42 % 12 km/h (24 km/h) 0 mm0 mm 6 min 281.8 W/m²
14:30 27.7 °C 13.2 °C 41 % 15 km/h (24 km/h) 0 mm0 mm 6 min 278.2 W/m²
14:24 28 °C 13.5 °C 41 % 14 km/h (26 km/h) 0 mm0 mm 6 min 278.9 W/m²
14:18 27.7 °C 12.5 °C 39 % 13 km/h (26 km/h) 0 mm0 mm 6 min 285.5 W/m²
14:12 27.5 °C 12.7 °C 40 % 13 km/h (22 km/h) 0 mm0 mm 6 min 286.5 W/m²
14:06 27.9 °C 13 °C 40 % 14 km/h (23 km/h) 0 mm0 mm 6 min 288.7 W/m²
14:00 27.7 °C 12.9 °C 40 % 15 km/h (24 km/h) 0 mm0 mm 6 min 289.8 W/m²
13:54 27.7 °C 13.2 °C 41 % 14 km/h (24 km/h) 0 mm0 mm 6 min 292.3 W/m²
13:48 27.5 °C 13.4 °C 42 % 15 km/h (26 km/h) 0 mm0 mm 6 min 283.5 W/m²
13:42 27.5 °C 13.4 °C 42 % 15 km/h (26 km/h) 0 mm0 mm 6 min 298.9 W/m²
13:36 27.2 °C 13.5 °C 43 % 13 km/h (24 km/h) 0 mm0 mm 6 min 299.5 W/m²
13:30 26.6 °C 13 °C 43 % 15 km/h (24 km/h) 0 mm0 mm 2 min 164.6 W/m²
13:24 27.8 °C 14.1 °C 43 % 14 km/h (24 km/h) 0 mm0 mm 6 min 296.7 W/m²
13:18 27.5 °C 14.2 °C 44 % 13 km/h (24 km/h) 0 mm0 mm 6 min 294.5 W/m²
13:12 27.4 °C 13.7 °C 43 % 15 km/h (25 km/h) 0 mm0 mm 6 min 289.9 W/m²
13:06 27.3 °C 14 °C 44 % 14 km/h (25 km/h) 0 mm0 mm 6 min 289.3 W/m²
13:00 27.4 °C 14.1 °C 44 % 15 km/h (32 km/h) 0 mm0 mm 6 min 286.4 W/m²
12:54 27.1 °C 13.8 °C 44 % 16 km/h (32 km/h) 0 mm0 mm 6 min 285.3 W/m²
12:48 27.2 °C 13.9 °C 44 % 12 km/h (19 km/h) 0 mm0 mm 6 min 282.4 W/m²
12:42 26.9 °C 14 °C 45 % 13 km/h (22 km/h) 0 mm0 mm 6 min 280.5 W/m²
12:36 26.9 °C 13.6 °C 44 % 15 km/h (25 km/h) 0 mm0 mm 6 min 279 W/m²
12:30 26.7 °C 13.4 °C 44 % 15 km/h (25 km/h) 0 mm0 mm 6 min 276.3 W/m²
12:24 26.9 °C 14.3 °C 46 % 13 km/h (21 km/h) 0 mm0 mm 6 min 272.9 W/m²
12:18 26.8 °C 13.9 °C 45 % 12 km/h (21 km/h) 0 mm0 mm 6 min 269.5 W/m²
12:12 26.7 °C 14.1 °C 46 % 11 km/h (20 km/h) 0 mm0 mm 6 min 270.8 W/m²
12:06 26.3 °C 13.4 °C 45 % 12 km/h (20 km/h) 0 mm0 mm 6 min 263.3 W/m²
12:00 26.6 °C 14.4 °C 47 % 14 km/h (22 km/h) 0 mm0 mm 6 min 258.9 W/m²
11:54 26.3 °C 14.1 °C 47 % 13 km/h (22 km/h) 0 mm0 mm 6 min 254.7 W/m²
11:48 26.4 °C 14.2 °C 47 % 7 km/h (16 km/h) 0 mm0 mm 6 min 251.2 W/m²
11:42 26.1 °C 13.9 °C 47 % 5 km/h (16 km/h) 0 mm0 mm 6 min 247.1 W/m²
11:36 25.7 °C 13.9 °C 48 % 7 km/h (14 km/h) 0 mm0 mm 6 min 243.1 W/m²
11:30 25.6 °C 13.8 °C 48 % 8 km/h (14 km/h) 0 mm0 mm 6 min 239.6 W/m²
11:24 25.6 °C 13.8 °C 48 % 8 km/h (13 km/h) 0 mm0 mm 6 min 235.8 W/m²
11:18 25.7 °C 14.2 °C 49 % 6 km/h (13 km/h) 0 mm0 mm 6 min 233.7 W/m²
11:12 25.8 °C 14.3 °C 49 % 3 km/h (7 km/h) 0 mm0 mm 6 min 233.3 W/m²
11:06 25.1 °C 13.9 °C 50 % 3 km/h (6 km/h) 0 mm0 mm 5 min 217.1 W/m²
11:00 24.7 °C 13.9 °C 51 % 4 km/h (8 km/h) 0 mm0 mm 0 min 122.9 W/m²
10:54 24.5 °C 14 °C 52 % 4 km/h (10 km/h) 0 mm0 mm 0 min 89.2 W/m²
10:48 24.6 °C 13.8 °C 51 % 4 km/h (8 km/h) 0 mm0 mm 1 min 114 W/m²
10:42 24.8 °C 13.4 °C 49 % 5 km/h (8 km/h) 0 mm0 mm 1 min 135.9 W/m²
10:36 24.6 °C 14.1 °C 52 % 5 km/h (8 km/h) 0 mm0 mm 5 min 199.5 W/m²
10:30 24.3 °C 13.5 °C 51 % 6 km/h (12 km/h) 0 mm0 mm 2 min 113 W/m²
10:24 24.3 °C 13.8 °C 52 % 6 km/h (12 km/h) 0 mm0 mm 4 min 166.5 W/m²
10:18 24.2 °C 13.7 °C 52 % 5 km/h (10 km/h) 0 mm0 mm 5 min 159.6 W/m²
10:12 23.9 °C 14 °C 54 % 4 km/h (7 km/h) 0 mm0 mm 5 min 180.2 W/m²
10:06 23.5 °C 13.9 °C 55 % 5 km/h (8 km/h) 0 mm0 mm 5 min 156.3 W/m²
10:00 23.2 °C 14.2 °C 57 % 5 km/h (8 km/h) 0 mm0 mm 6 min 173.9 W/m²
09:54 22.7 °C 14 °C 58 % 4 km/h (7 km/h) 0 mm0 mm 6 min 160.3 W/m²
09:48 22.6 °C 13.6 °C 57 % 3 km/h (7 km/h) 0 mm0 mm 6 min 155.2 W/m²
09:42 22.4 °C 14 °C 59 % 2 km/h (6 km/h) 0 mm0 mm 6 min 147.7 W/m²
09:36 21.7 °C 14.8 °C 65 % 3 km/h (6 km/h) 0 mm0 mm 6 min 139.7 W/m²
09:30 21.2 °C 13.9 °C 63 % 3 km/h (6 km/h) 0 mm0 mm 6 min 133.3 W/m²
09:24 20.7 °C 13.6 °C 64 % 2 km/h (5 km/h) 0 mm0 mm 6 min 127.3 W/m²
09:18 20.5 °C 13.5 °C 64 % 4 km/h (10 km/h) 0 mm0 mm 6 min 121.2 W/m²
09:12 19.8 °C 13.5 °C 67 % 6 km/h (10 km/h) 0 mm0 mm 6 min 114.8 W/m²
09:06 19.4 °C 13.3 °C 68 % 8 km/h (12 km/h) 0 mm0 mm 6 min 108.2 W/m²
09:00 19 °C 13.2 °C 69 % 8 km/h (12 km/h) 0 mm0 mm 6 min 101.4 W/m²
08:54 18.8 °C 13.2 °C 70 % 5 km/h (9 km/h) 0 mm0 mm 6 min 94.3 W/m²
08:48 18.5 °C 13.1 °C 71 % 4 km/h (6 km/h) 0 mm0 mm 6 min 87.5 W/m²
08:42 18.1 °C 12.8 °C 71 % 3 km/h (6 km/h) 0 mm0 mm 6 min 81 W/m²
08:36 17.6 °C 13.1 °C 75 % 2 km/h (5 km/h) 0 mm0 mm 6 min 74.6 W/m²
08:30 16.9 °C 12.8 °C 77 % 4 km/h (9 km/h) 0 mm0 mm 6 min 68.6 W/m²
08:24 15.8 °C 12.5 °C 81 % 5 km/h (9 km/h) 0 mm0 mm 6 min 62.2 W/m²
08:18 15.1 °C 12.4 °C 84 % 4 km/h (7 km/h) 0 mm0 mm 2 min 35.1 W/m²
08:12 14.9 °C 12.4 °C 85 % 5 km/h (8 km/h) 0 mm0 mm 0 min 16.2 W/m²
08:06 14.9 °C 12.2 °C 84 % 5 km/h (8 km/h) 0 mm0 mm 0 min 10.6 W/m²
08:00 15 °C 12.3 °C 84 % 4 km/h (7 km/h) 0 mm0 mm 0 min 9.2 W/m²
07:54 15 °C 12.3 °C 84 % 4 km/h (7 km/h) 0 mm0 mm 0 min 8.2 W/m²
07:48 14.7 °C 12.4 °C 86 % 5 km/h (8 km/h) 0 mm0 mm 0 min 7.5 W/m²
07:42 14.7 °C 12.2 °C 85 % 7 km/h (10 km/h) 0 mm0 mm 0 min 6.8 W/m²
07:36 14.6 °C 12.3 °C 86 % 5 km/h (10 km/h) 0 mm0 mm 0 min 5.5 W/m²
07:30 14.5 °C 12.2 °C 86 % 4 km/h (7 km/h) 0 mm0 mm 0 min 5.2 W/m²
07:24 14.5 °C 12.4 °C 87 % 3 km/h (5 km/h) 0 mm0 mm 0 min 1.1 W/m²
07:18 14.4 °C 12.3 °C 87 % 5 km/h (10 km/h) 0 mm0 mm 0 min 0 W/m²
07:12 14.3 °C 12.3 °C 88 % 8 km/h (12 km/h) 0 mm0 mm 0 min 0 W/m²
07:06 14.3 °C 12.2 °C 87 % 6 km/h (11 km/h) 0 mm0 mm 0 min 0 W/m²
07:00 14.3 °C 12.2 °C 87 % 5 km/h (8 km/h) 0 mm0 mm 0 min 0 W/m²
06:54 14.2 °C 12.2 °C 88 % 5 km/h (8 km/h) 0 mm0 mm 0 min 0 W/m²
06:48 14.1 °C 12.1 °C 88 % 5 km/h (8 km/h) 0 mm0 mm 0 min 0 W/m²
06:42 14 °C 12 °C 88 % 5 km/h (8 km/h) 0 mm0 mm 0 min 0 W/m²
06:36 14.1 °C 12.1 °C 88 % 5 km/h (8 km/h) 0 mm0 mm 0 min 0 W/m²
06:30 14.1 °C 12.1 °C 88 % 5 km/h (8 km/h) 0 mm0 mm 0 min 0 W/m²
06:24 14.3 °C 12.2 °C 87 % 5 km/h (7 km/h) 0 mm0 mm 0 min 0 W/m²
06:18 14.3 °C 12.2 °C 87 % 5 km/h (7 km/h) 0 mm0 mm 0 min 0 W/m²
06:12 14.3 °C 12.2 °C 87 % 2 km/h (6 km/h) 0 mm0 mm 0 min 0 W/m²
06:06 14.2 °C 11.9 °C 86 % 3 km/h (7 km/h) 0 mm0 mm 0 min 0 W/m²
06:00 14.2 °C 12.1 °C 87 % 5 km/h (7 km/h) 0 mm0 mm 0 min 0 W/m²
05:54 14.4 °C 12.1 °C 86 % 4 km/h (7 km/h) 0 mm0 mm 0 min 0 W/m²
05:48 14.3 °C 12 °C 86 % 5 km/h (10 km/h) 0 mm0 mm 0 min 0 W/m²
05:42 14.3 °C 12 °C 86 % 7 km/h (10 km/h) 0 mm0 mm 0 min 0 W/m²
05:36 14.3 °C 12 °C 86 % 5 km/h (7 km/h) 0 mm0 mm 0 min 0 W/m²
05:30 14.3 °C 12 °C 86 % 2 km/h (6 km/h) 0 mm0 mm 0 min 0 W/m²
05:24 14.3 °C 12.2 °C 87 % 3 km/h (6 km/h) 0 mm0 mm 0 min 0 W/m²
05:18 14.3 °C 12 °C 86 % 5 km/h (6 km/h) 0 mm0 mm 0 min 0 W/m²
05:12 14.2 °C 12.1 °C 87 % 5 km/h (8 km/h) 0 mm0 mm 0 min 0 W/m²
05:06 14.1 °C 12.1 °C 88 % 6 km/h (8 km/h) 0 mm0 mm 0 min 0 W/m²
05:00 14 °C 12 °C 88 % 7 km/h (9 km/h) 0 mm0 mm 0 min 0 W/m²
04:54 13.9 °C 11.9 °C 88 % 7 km/h (9 km/h) 0 mm0 mm 0 min 0 W/m²
04:48 14.1 °C 12.1 °C 88 % 4 km/h (8 km/h) 0 mm0 mm 0 min 0 W/m²
04:42 14.1 °C 12 °C 87 % 3 km/h (7 km/h) 0 mm0 mm 0 min 0 W/m²
04:36 14 °C 12 °C 88 % 3 km/h (7 km/h) 0 mm0 mm 0 min 0 W/m²
04:30 14 °C 11.7 °C 86 % 2 km/h (4 km/h) 0 mm0 mm 0 min 0 W/m²
04:24 14.1 °C 11.8 °C 86 % 2 km/h (5 km/h) 0 mm0 mm 0 min 0 W/m²
04:18 14.2 °C 11.7 °C 85 % 2 km/h (4 km/h) 0 mm0 mm 0 min 0 W/m²
04:12 14.2 °C 11.7 °C 85 % 3 km/h (6 km/h) 0 mm0 mm 0 min 0 W/m²
04:06 14.2 °C 11.9 °C 86 % 5 km/h (8 km/h) 0 mm0 mm 0 min 0 W/m²
04:00 14.1 °C 11.8 °C 86 % 8 km/h (11 km/h) 0 mm0 mm 0 min 0 W/m²
03:54 14 °C 11.7 °C 86 % 8 km/h (11 km/h) 0 mm0 mm 0 min 0 W/m²
03:48 14.4 °C 11.9 °C 85 % 6 km/h (9 km/h) 0 mm0 mm 0 min 0 W/m²
03:42 14.5 °C 12 °C 85 % 6 km/h (9 km/h) 0 mm0 mm 0 min 0 W/m²
03:36 14.4 °C 11.7 °C 84 % 5 km/h (7 km/h) 0 mm0 mm 0 min 0 W/m²
03:30 14.3 °C 11.8 °C 85 % 6 km/h (9 km/h) 0 mm0 mm 0 min 0 W/m²
03:24 14.4 °C 11.9 °C 85 % 7 km/h (9 km/h) 0 mm0 mm 0 min 0 W/m²
03:18 14.5 °C 12 °C 85 % 6 km/h (9 km/h) 0 mm0 mm 0 min 0 W/m²
03:12 14.3 °C 12 °C 86 % 7 km/h (10 km/h) 0 mm0 mm 0 min 0 W/m²
03:06 14.4 °C 11.9 °C 85 % 7 km/h (10 km/h) 0 mm0 mm 0 min 0 W/m²
03:00 14.2 °C 11.9 °C 86 % 7 km/h (10 km/h) 0 mm0 mm 0 min 0 W/m²
02:54 14.4 °C 12.1 °C 86 % 7 km/h (10 km/h) 0 mm0 mm 0 min 0 W/m²
02:48 14.4 °C 12.1 °C 86 % 6 km/h (9 km/h) 0 mm0 mm 0 min 0 W/m²
02:42 14.3 °C 12 °C 86 % 7 km/h (9 km/h) 0 mm0 mm 0 min 0 W/m²
02:36 14.3 °C 12 °C 86 % 6 km/h (9 km/h) 0 mm0 mm 0 min 0 W/m²
02:30 14.4 °C 12.1 °C 86 % 6 km/h (8 km/h) 0 mm0 mm 0 min 0 W/m²
02:24 14.5 °C 12.2 °C 86 % 6 km/h (9 km/h) 0 mm0 mm 0 min 0 W/m²
02:18 14.7 °C 12.2 °C 85 % 7 km/h (9 km/h) 0 mm0 mm 0 min 0 W/m²
02:12 14.8 °C 12.3 °C 85 % 6 km/h (9 km/h) 0 mm0 mm 0 min 0 W/m²
02:06 14.7 °C 12.2 °C 85 % 6 km/h (8 km/h) 0 mm0 mm 0 min 0 W/m²
02:00 14.7 °C 12.2 °C 85 % 5 km/h (8 km/h) 0 mm0 mm 0 min 0 W/m²
01:54 14.9 °C 12.2 °C 84 % 4 km/h (6 km/h) 0 mm0 mm 0 min 0 W/m²
01:48 15 °C 12.3 °C 84 % 5 km/h (6 km/h) 0 mm0 mm 0 min 0 W/m²
01:42 15.2 °C 12.3 °C 83 % 5 km/h (6 km/h) 0 mm0 mm 0 min 0 W/m²
01:36 15.2 °C 12.3 °C 83 % 6 km/h (8 km/h) 0 mm0 mm 0 min 0 W/m²
01:30 15.3 °C 12.4 °C 83 % 6 km/h (8 km/h) 0 mm0 mm 0 min 0 W/m²
01:24 15.2 °C 12.3 °C 83 % 6 km/h (8 km/h) 0 mm0 mm 0 min 0 W/m²
01:18 15.5 °C 12.4 °C 82 % 5 km/h (8 km/h) 0 mm0 mm 0 min 0 W/m²
01:12 15.9 °C 12.5 °C 80 % 6 km/h (9 km/h) 0 mm0 mm 0 min 0 W/m²
01:06 15.8 °C 12.5 °C 81 % 6 km/h (8 km/h) 0 mm0 mm 0 min 0 W/m²
01:00 15.9 °C 12.6 °C 81 % 6 km/h (9 km/h) 0 mm0 mm 0 min 0 W/m²
00:54 15.9 °C 12.5 °C 80 % 6 km/h (9 km/h) 0 mm0 mm 0 min 0 W/m²
00:48 16.1 °C 12.6 °C 80 % 7 km/h (12 km/h) 0 mm0 mm 0 min 0 W/m²
00:42 16.3 °C 12.6 °C 79 % 8 km/h (12 km/h) 0 mm0 mm 0 min 0 W/m²
00:36 16.1 °C 12.6 °C 80 % 5 km/h (10 km/h) 0 mm0 mm 0 min 0 W/m²
00:30 16.3 °C 12.6 °C 79 % 4 km/h (6 km/h) 0 mm0 mm 0 min 0 W/m²
00:24 16.7 °C 12.6 °C 77 % 4 km/h (5 km/h) 0 mm0 mm 0 min 0 W/m²
00:18 16.8 °C 12.7 °C 77 % 5 km/h (7 km/h) 0 mm0 mm 0 min 0 W/m²
00:12 16.9 °C 12.6 °C 76 % 5 km/h (8 km/h) 0 mm0 mm 0 min 0 W/m²
00:06 16.8 °C 12.7 °C 77 % 7 km/h (11 km/h) 0 mm0 mm 0 min 0 W/m²
00:00 16.9 °C 12.8 °C 77 % 9 km/h (13 km/h) 0 mm0 mm 0 min 0 W/m²

Données via Météo-France

Relevés météo à St-Auban-Sur-Ouveze

Cette page rassemble les observations de la station de St-Auban-Sur-Ouveze : température, humidité, vent, précipitations et pression atmosphérique. Les graphiques facilitent le suivi de la journée, tandis que le tableau donne accès aux mesures horaires et infra-horaires disponibles.

Pour replacer ces mesures dans leur contexte, consultez la climatologie de St-Auban-Sur-Ouveze ainsi que ses normales et records. Retrouvez aussi la carte des observations météo en temps réel.